sensor_id;sensor_type;location;lat;lon;timestamp;P1;durP1;ratioP1;P2;durP2;ratioP2
23684;SDS011;12020;51.384;6.908;2022-09-09T00:13:02;2.33;;;0.90;;
23684;SDS011;12020;51.384;6.908;2022-09-09T00:16:38;3.28;;;1.10;;
23684;SDS011;12020;51.384;6.908;2022-09-09T00:22:16;2.65;;;0.80;;
23684;SDS011;12020;51.384;6.908;2022-09-09T00:24:46;3.27;;;0.93;;
23684;SDS011;12020;51.384;6.908;2022-09-09T00:32:53;2.50;;;0.82;;
23684;SDS011;12020;51.384;6.908;2022-09-09T00:35:44;1.60;;;0.80;;
23684;SDS011;12020;51.384;6.908;2022-09-09T00:38:36;2.83;;;1.50;;
23684;SDS011;12020;51.384;6.908;2022-09-09T00:41:57;1.27;;;0.70;;
23684;SDS011;12020;51.384;6.908;2022-09-09T00:44:21;1.87;;;0.70;;
23684;SDS011;12020;51.384;6.908;2022-09-09T00:47:10;1.57;;;0.80;;
23684;SDS011;12020;51.384;6.908;2022-09-09T00:56:36;1.43;;;0.63;;
23684;SDS011;12020;51.384;6.908;2022-09-09T00:59:18;2.73;;;0.60;;
23684;SDS011;12020;51.384;6.908;2022-09-09T01:02:06;1.40;;;0.70;;
23684;SDS011;12020;51.384;6.908;2022-09-09T01:04:45;2.90;;;0.87;;
23684;SDS011;12020;51.384;6.908;2022-09-09T01:07:15;1.40;;;0.70;;
23684;SDS011;12020;51.384;6.908;2022-09-09T01:12:38;3.40;;;0.80;;
23684;SDS011;12020;51.384;6.908;2022-09-09T01:15:16;2.80;;;1.03;;
23684;SDS011;12020;51.384;6.908;2022-09-09T01:18:20;2.67;;;0.90;;
23684;SDS011;12020;51.384;6.908;2022-09-09T01:26:48;2.13;;;1.03;;
23684;SDS011;12020;51.384;6.908;2022-09-09T01:29:22;4.10;;;1.37;;
23684;SDS011;12020;51.384;6.908;2022-09-09T01:32:02;3.90;;;1.40;;
23684;SDS011;12020;51.384;6.908;2022-09-09T01:34:54;3.77;;;1.20;;
23684;SDS011;12020;51.384;6.908;2022-09-09T01:37:58;4.47;;;1.70;;
23684;SDS011;12020;51.384;6.908;2022-09-09T01:40:26;2.23;;;1.53;;
23684;SDS011;12020;51.384;6.908;2022-09-09T01:43:10;2.83;;;1.43;;
23684;SDS011;12020;51.384;6.908;2022-09-09T01:45:42;3.63;;;1.30;;
23684;SDS011;12020;51.384;6.908;2022-09-09T01:48:12;4.03;;;1.43;;
23684;SDS011;12020;51.384;6.908;2022-09-09T01:50:38;2.37;;;1.20;;
23684;SDS011;12020;51.384;6.908;2022-09-09T01:53:07;1.57;;;1.37;;
23684;SDS011;12020;51.384;6.908;2022-09-09T01:55:40;3.07;;;1.20;;
23684;SDS011;12020;51.384;6.908;2022-09-09T02:11:46;3.17;;;1.20;;
23684;SDS011;12020;51.384;6.908;2022-09-09T02:14:34;3.47;;;1.40;;
23684;SDS011;12020;51.384;6.908;2022-09-09T02:17:11;3.87;;;1.50;;
23684;SDS011;12020;51.384;6.908;2022-09-09T02:20:17;3.67;;;1.30;;
23684;SDS011;12020;51.384;6.908;2022-09-09T02:22:46;3.87;;;1.30;;
23684;SDS011;12020;51.384;6.908;2022-09-09T02:25:38;7.27;;;1.40;;
23684;SDS011;12020;51.384;6.908;2022-09-09T02:28:28;2.00;;;1.10;;
23684;SDS011;12020;51.384;6.908;2022-09-09T02:31:47;3.50;;;1.27;;
23684;SDS011;12020;51.384;6.908;2022-09-09T02:34:28;2.70;;;1.20;;
23684;SDS011;12020;51.384;6.908;2022-09-09T02:37:45;2.60;;;1.20;;
23684;SDS011;12020;51.384;6.908;2022-09-09T02:41:12;1.90;;;1.07;;
23684;SDS011;12020;51.384;6.908;2022-09-09T02:43:57;3.30;;;1.10;;
23684;SDS011;12020;51.384;6.908;2022-09-09T02:47:07;2.60;;;1.20;;
23684;SDS011;12020;51.384;6.908;2022-09-09T02:56:18;4.10;;;1.60;;
23684;SDS011;12020;51.384;6.908;2022-09-09T03:02:07;4.27;;;1.90;;
23684;SDS011;12020;51.384;6.908;2022-09-09T03:04:37;4.57;;;2.00;;
23684;SDS011;12020;51.384;6.908;2022-09-09T03:07:08;3.67;;;1.70;;
23684;SDS011;12020;51.384;6.908;2022-09-09T03:10:14;5.20;;;1.87;;
23684;SDS011;12020;51.384;6.908;2022-09-09T03:12:55;5.00;;;2.13;;
23684;SDS011;12020;51.384;6.908;2022-09-09T03:15:42;5.27;;;1.77;;
23684;SDS011;12020;51.384;6.908;2022-09-09T03:18:11;8.10;;;1.90;;
23684;SDS011;12020;51.384;6.908;2022-09-09T03:21:05;4.13;;;1.93;;
23684;SDS011;12020;51.384;6.908;2022-09-09T03:23:34;3.40;;;1.53;;
23684;SDS011;12020;51.384;6.908;2022-09-09T03:26:02;2.20;;;1.43;;
23684;SDS011;12020;51.384;6.908;2022-09-09T03:32:03;4.40;;;1.67;;
23684;SDS011;12020;51.384;6.908;2022-09-09T03:34:44;3.00;;;1.57;;
23684;SDS011;12020;51.384;6.908;2022-09-09T03:37:45;3.27;;;1.70;;
23684;SDS011;12020;51.384;6.908;2022-09-09T03:40:33;3.80;;;1.37;;
23684;SDS011;12020;51.384;6.908;2022-09-09T03:43:41;3.60;;;1.83;;
23684;SDS011;12020;51.384;6.908;2022-09-09T03:46:08;3.63;;;1.50;;
23684;SDS011;12020;51.384;6.908;2022-09-09T03:48:37;3.93;;;1.53;;
23684;SDS011;12020;51.384;6.908;2022-09-09T03:51:05;8.53;;;1.63;;
23684;SDS011;12020;51.384;6.908;2022-09-09T03:53:39;3.37;;;1.27;;
23684;SDS011;12020;51.384;6.908;2022-09-09T03:56:06;4.47;;;1.47;;
23684;SDS011;12020;51.384;6.908;2022-09-09T03:58:36;3.37;;;1.43;;
23684;SDS011;12020;51.384;6.908;2022-09-09T04:01:27;2.63;;;1.43;;
23684;SDS011;12020;51.384;6.908;2022-09-09T04:03:58;5.00;;;1.40;;
23684;SDS011;12020;51.384;6.908;2022-09-09T04:06:46;3.30;;;1.27;;
23684;SDS011;12020;51.384;6.908;2022-09-09T04:11:42;4.17;;;1.60;;
23684;SDS011;12020;51.384;6.908;2022-09-09T04:14:10;2.87;;;1.37;;
23684;SDS011;12020;51.384;6.908;2022-09-09T04:16:42;3.47;;;1.20;;
23684;SDS011;12020;51.384;6.908;2022-09-09T04:19:14;4.00;;;1.53;;
23684;SDS011;12020;51.384;6.908;2022-09-09T04:21:47;2.37;;;1.30;;
23684;SDS011;12020;51.384;6.908;2022-09-09T04:30:43;4.70;;;1.20;;
23684;SDS011;12020;51.384;6.908;2022-09-09T04:33:32;6.97;;;1.50;;
23684;SDS011;12020;51.384;6.908;2022-09-09T04:36:17;7.37;;;1.77;;
23684;SDS011;12020;51.384;6.908;2022-09-09T04:38:46;5.37;;;1.50;;
23684;SDS011;12020;51.384;6.908;2022-09-09T04:41:14;4.83;;;1.60;;
23684;SDS011;12020;51.384;6.908;2022-09-09T04:43:51;2.97;;;1.67;;
23684;SDS011;12020;51.384;6.908;2022-09-09T04:46:33;3.80;;;1.60;;
23684;SDS011;12020;51.384;6.908;2022-09-09T04:49:06;4.97;;;1.70;;
23684;SDS011;12020;51.384;6.908;2022-09-09T04:51:35;5.33;;;1.70;;
23684;SDS011;12020;51.384;6.908;2022-09-09T04:54:05;4.80;;;1.70;;
23684;SDS011;12020;51.384;6.908;2022-09-09T04:56:32;4.73;;;1.90;;
23684;SDS011;12020;51.384;6.908;2022-09-09T04:59:00;4.73;;;2.00;;
23684;SDS011;12020;51.384;6.908;2022-09-09T05:01:37;6.10;;;1.93;;
23684;SDS011;12020;51.384;6.908;2022-09-09T05:04:03;6.57;;;1.80;;
23684;SDS011;12020;51.384;6.908;2022-09-09T05:06:30;3.27;;;1.53;;
23684;SDS011;12020;51.384;6.908;2022-09-09T05:09:01;3.50;;;1.73;;
23684;SDS011;12020;51.384;6.908;2022-09-09T05:11:30;2.37;;;1.23;;
23684;SDS011;12020;51.384;6.908;2022-09-09T05:13:57;4.33;;;1.70;;
23684;SDS011;12020;51.384;6.908;2022-09-09T05:16:35;1.93;;;1.30;;
23684;SDS011;12020;51.384;6.908;2022-09-09T05:19:01;2.73;;;1.40;;
23684;SDS011;12020;51.384;6.908;2022-09-09T05:21:30;3.00;;;1.50;;
23684;SDS011;12020;51.384;6.908;2022-09-09T05:23:56;6.23;;;1.73;;
23684;SDS011;12020;51.384;6.908;2022-09-09T05:31:45;4.97;;;1.70;;
23684;SDS011;12020;51.384;6.908;2022-09-09T05:34:12;4.50;;;1.90;;
23684;SDS011;12020;51.384;6.908;2022-09-09T05:36:37;3.27;;;1.70;;
23684;SDS011;12020;51.384;6.908;2022-09-09T05:39:03;8.37;;;1.90;;
23684;SDS011;12020;51.384;6.908;2022-09-09T05:41:31;7.00;;;1.83;;
23684;SDS011;12020;51.384;6.908;2022-09-09T05:43:57;3.30;;;1.50;;
23684;SDS011;12020;51.384;6.908;2022-09-09T05:46:26;6.40;;;1.70;;
23684;SDS011;12020;51.384;6.908;2022-09-09T05:48:53;6.93;;;1.80;;
23684;SDS011;12020;51.384;6.908;2022-09-09T05:51:23;5.87;;;1.70;;
23684;SDS011;12020;51.384;6.908;2022-09-09T05:53:51;4.73;;;1.87;;
23684;SDS011;12020;51.384;6.908;2022-09-09T05:56:18;5.50;;;1.90;;
23684;SDS011;12020;51.384;6.908;2022-09-09T05:58:48;4.97;;;1.70;;
23684;SDS011;12020;51.384;6.908;2022-09-09T06:01:16;2.10;;;1.67;;
23684;SDS011;12020;51.384;6.908;2022-09-09T06:03:59;5.03;;;1.83;;
23684;SDS011;12020;51.384;6.908;2022-09-09T06:06:26;4.03;;;2.07;;
23684;SDS011;12020;51.384;6.908;2022-09-09T06:08:56;4.53;;;2.13;;
23684;SDS011;12020;51.384;6.908;2022-09-09T06:11:24;6.40;;;1.83;;
23684;SDS011;12020;51.384;6.908;2022-09-09T06:13:53;6.00;;;2.13;;
23684;SDS011;12020;51.384;6.908;2022-09-09T06:16:23;6.07;;;1.40;;
23684;SDS011;12020;51.384;6.908;2022-09-09T06:18:52;3.30;;;1.50;;
23684;SDS011;12020;51.384;6.908;2022-09-09T06:21:21;2.50;;;1.37;;
23684;SDS011;12020;51.384;6.908;2022-09-09T06:24:03;4.27;;;1.40;;
23684;SDS011;12020;51.384;6.908;2022-09-09T06:26:30;2.90;;;1.57;;
23684;SDS011;12020;51.384;6.908;2022-09-09T06:29:06;6.47;;;1.87;;
23684;SDS011;12020;51.384;6.908;2022-09-09T06:31:35;2.97;;;1.60;;
23684;SDS011;12020;51.384;6.908;2022-09-09T06:34:14;5.83;;;2.20;;
23684;SDS011;12020;51.384;6.908;2022-09-09T06:36:40;7.60;;;1.73;;
23684;SDS011;12020;51.384;6.908;2022-09-09T06:42:02;3.63;;;1.67;;
23684;SDS011;12020;51.384;6.908;2022-09-09T06:44:32;4.90;;;2.00;;
23684;SDS011;12020;51.384;6.908;2022-09-09T06:47:00;4.77;;;1.90;;
23684;SDS011;12020;51.384;6.908;2022-09-09T06:49:38;6.03;;;2.37;;
23684;SDS011;12020;51.384;6.908;2022-09-09T06:52:09;4.43;;;1.97;;
23684;SDS011;12020;51.384;6.908;2022-09-09T06:54:36;6.03;;;2.17;;
23684;SDS011;12020;51.384;6.908;2022-09-09T06:57:02;4.93;;;1.80;;
23684;SDS011;12020;51.384;6.908;2022-09-09T06:59:28;5.40;;;2.00;;
23684;SDS011;12020;51.384;6.908;2022-09-09T07:01:55;8.50;;;2.17;;
23684;SDS011;12020;51.384;6.908;2022-09-09T07:04:21;5.27;;;1.60;;
23684;SDS011;12020;51.384;6.908;2022-09-09T07:06:47;4.87;;;1.80;;
23684;SDS011;12020;51.384;6.908;2022-09-09T07:09:14;5.13;;;1.90;;
23684;SDS011;12020;51.384;6.908;2022-09-09T07:11:43;6.73;;;1.67;;
23684;SDS011;12020;51.384;6.908;2022-09-09T07:14:19;4.73;;;1.90;;
23684;SDS011;12020;51.384;6.908;2022-09-09T07:16:45;4.40;;;1.63;;
23684;SDS011;12020;51.384;6.908;2022-09-09T07:19:12;3.73;;;1.60;;
23684;SDS011;12020;51.384;6.908;2022-09-09T07:21:44;6.10;;;1.70;;
23684;SDS011;12020;51.384;6.908;2022-09-09T07:24:22;4.80;;;1.70;;
23684;SDS011;12020;51.384;6.908;2022-09-09T07:26:50;6.30;;;1.75;;
23684;SDS011;12020;51.384;6.908;2022-09-09T07:29:19;5.13;;;1.50;;
23684;SDS011;12020;51.384;6.908;2022-09-09T07:31:46;3.63;;;1.73;;
23684;SDS011;12020;51.384;6.908;2022-09-09T07:34:21;4.17;;;1.40;;
23684;SDS011;12020;51.384;6.908;2022-09-09T07:36:51;4.43;;;1.80;;
23684;SDS011;12020;51.384;6.908;2022-09-09T07:39:26;3.60;;;1.50;;
23684;SDS011;12020;51.384;6.908;2022-09-09T07:41:53;5.77;;;2.00;;
23684;SDS011;12020;51.384;6.908;2022-09-09T07:44:23;7.53;;;1.73;;
23684;SDS011;12020;51.384;6.908;2022-09-09T07:47:02;4.17;;;1.30;;
23684;SDS011;12020;51.384;6.908;2022-09-09T07:49:37;4.47;;;1.23;;
23684;SDS011;12020;51.384;6.908;2022-09-09T07:52:04;6.50;;;1.57;;
23684;SDS011;12020;51.384;6.908;2022-09-09T07:54:38;3.60;;;1.20;;
23684;SDS011;12020;51.384;6.908;2022-09-09T07:57:03;5.27;;;1.73;;
23684;SDS011;12020;51.384;6.908;2022-09-09T07:59:31;3.00;;;1.43;;
23684;SDS011;12020;51.384;6.908;2022-09-09T08:01:56;3.27;;;1.40;;
23684;SDS011;12020;51.384;6.908;2022-09-09T08:04:38;3.00;;;1.77;;
23684;SDS011;12020;51.384;6.908;2022-09-09T08:07:27;5.57;;;1.70;;
23684;SDS011;12020;51.384;6.908;2022-09-09T08:09:56;3.33;;;1.40;;
23684;SDS011;12020;51.384;6.908;2022-09-09T08:12:22;4.77;;;1.40;;
23684;SDS011;12020;51.384;6.908;2022-09-09T08:14:49;3.97;;;1.27;;
23684;SDS011;12020;51.384;6.908;2022-09-09T08:17:16;3.63;;;1.10;;
23684;SDS011;12020;51.384;6.908;2022-09-09T08:19:42;4.47;;;1.20;;
23684;SDS011;12020;51.384;6.908;2022-09-09T08:22:09;2.73;;;1.20;;
23684;SDS011;12020;51.384;6.908;2022-09-09T08:24:35;8.57;;;1.30;;
23684;SDS011;12020;51.384;6.908;2022-09-09T08:27:01;3.43;;;1.00;;
23684;SDS011;12020;51.384;6.908;2022-09-09T08:29:26;3.70;;;1.27;;
23684;SDS011;12020;51.384;6.908;2022-09-09T08:31:55;6.10;;;1.83;;
23684;SDS011;12020;51.384;6.908;2022-09-09T08:34:23;7.47;;;1.73;;
23684;SDS011;12020;51.384;6.908;2022-09-09T08:36:51;4.43;;;1.23;;
23684;SDS011;12020;51.384;6.908;2022-09-09T08:39:18;3.20;;;1.50;;
23684;SDS011;12020;51.384;6.908;2022-09-09T08:42:09;4.17;;;1.07;;
23684;SDS011;12020;51.384;6.908;2022-09-09T08:44:49;4.43;;;1.20;;
23684;SDS011;12020;51.384;6.908;2022-09-09T08:50:30;4.37;;;1.30;;
23684;SDS011;12020;51.384;6.908;2022-09-09T08:53:28;4.10;;;1.40;;
23684;SDS011;12020;51.384;6.908;2022-09-09T08:56:04;2.83;;;1.10;;
23684;SDS011;12020;51.384;6.908;2022-09-09T08:58:39;7.03;;;1.40;;
23684;SDS011;12020;51.384;6.908;2022-09-09T09:04:12;3.27;;;1.20;;
23684;SDS011;12020;51.384;6.908;2022-09-09T09:09:36;6.40;;;1.33;;
23684;SDS011;12020;51.384;6.908;2022-09-09T09:12:30;5.10;;;1.40;;
23684;SDS011;12020;51.384;6.908;2022-09-09T09:15:05;2.90;;;1.13;;
23684;SDS011;12020;51.384;6.908;2022-09-09T09:17:42;3.57;;;1.30;;
23684;SDS011;12020;51.384;6.908;2022-09-09T09:20:12;4.53;;;1.40;;
23684;SDS011;12020;51.384;6.908;2022-09-09T09:22:46;2.63;;;1.10;;
23684;SDS011;12020;51.384;6.908;2022-09-09T09:25:18;5.73;;;1.60;;
23684;SDS011;12020;51.384;6.908;2022-09-09T09:30:21;4.43;;;1.53;;
23684;SDS011;12020;51.384;6.908;2022-09-09T09:33:11;4.33;;;1.33;;
23684;SDS011;12020;51.384;6.908;2022-09-09T09:35:40;6.33;;;1.47;;
23684;SDS011;12020;51.384;6.908;2022-09-09T09:40:54;4.33;;;1.47;;
23684;SDS011;12020;51.384;6.908;2022-09-09T09:43:36;4.20;;;1.07;;
23684;SDS011;12020;51.384;6.908;2022-09-09T09:46:22;3.00;;;1.20;;
23684;SDS011;12020;51.384;6.908;2022-09-09T09:48:59;7.17;;;1.60;;
23684;SDS011;12020;51.384;6.908;2022-09-09T09:51:36;2.70;;;1.30;;
23684;SDS011;12020;51.384;6.908;2022-09-09T09:54:14;5.83;;;1.23;;
23684;SDS011;12020;51.384;6.908;2022-09-09T09:56:52;4.43;;;1.20;;
23684;SDS011;12020;51.384;6.908;2022-09-09T09:59:22;5.23;;;1.20;;
23684;SDS011;12020;51.384;6.908;2022-09-09T10:02:36;7.37;;;1.30;;
23684;SDS011;12020;51.384;6.908;2022-09-09T10:05:06;3.53;;;1.30;;
23684;SDS011;12020;51.384;6.908;2022-09-09T10:07:40;3.57;;;1.20;;
23684;SDS011;12020;51.384;6.908;2022-09-09T10:10:13;3.13;;;0.97;;
23684;SDS011;12020;51.384;6.908;2022-09-09T10:12:55;3.90;;;1.10;;
23684;SDS011;12020;51.384;6.908;2022-09-09T10:27:37;1.77;;;1.00;;
23684;SDS011;12020;51.384;6.908;2022-09-09T10:32:48;2.03;;;0.90;;
23684;SDS011;12020;51.384;6.908;2022-09-09T10:35:25;2.13;;;0.77;;
23684;SDS011;12020;51.384;6.908;2022-09-09T10:55:10;2.43;;;0.87;;
23684;SDS011;12020;51.384;6.908;2022-09-09T10:57:39;2.50;;;0.90;;
23684;SDS011;12020;51.384;6.908;2022-09-09T11:00:19;2.53;;;0.80;;
23684;SDS011;12020;51.384;6.908;2022-09-09T11:03:05;3.57;;;0.90;;
23684;SDS011;12020;51.384;6.908;2022-09-09T11:05:42;1.80;;;0.80;;
23684;SDS011;12020;51.384;6.908;2022-09-09T11:08:22;1.87;;;0.80;;
23684;SDS011;12020;51.384;6.908;2022-09-09T11:11:03;2.87;;;1.33;;
23684;SDS011;12020;51.384;6.908;2022-09-09T11:17:04;2.00;;;0.87;;
23684;SDS011;12020;51.384;6.908;2022-09-09T11:19:43;1.57;;;0.77;;
23684;SDS011;12020;51.384;6.908;2022-09-09T11:25:00;3.10;;;1.20;;
23684;SDS011;12020;51.384;6.908;2022-09-09T11:30:26;2.60;;;1.07;;
23684;SDS011;12020;51.384;6.908;2022-09-09T11:41:49;5.23;;;1.00;;
23684;SDS011;12020;51.384;6.908;2022-09-09T11:44:24;3.07;;;0.73;;
23684;SDS011;12020;51.384;6.908;2022-09-09T11:46:54;3.00;;;0.87;;
23684;SDS011;12020;51.384;6.908;2022-09-09T11:50:06;3.07;;;0.73;;
23684;SDS011;12020;51.384;6.908;2022-09-09T11:52:24;2.83;;;0.83;;
23684;SDS011;12020;51.384;6.908;2022-09-09T11:55:08;1.77;;;1.00;;
23684;SDS011;12020;51.384;6.908;2022-09-09T11:57:37;4.20;;;1.23;;
23684;SDS011;12020;51.384;6.908;2022-09-09T12:00:04;2.33;;;0.87;;
23684;SDS011;12020;51.384;6.908;2022-09-09T12:02:30;2.77;;;0.93;;
23684;SDS011;12020;51.384;6.908;2022-09-09T12:07:30;1.30;;;0.73;;
23684;SDS011;12020;51.384;6.908;2022-09-09T12:10:52;2.27;;;0.80;;
23684;SDS011;12020;51.384;6.908;2022-09-09T12:13:23;1.80;;;1.03;;
23684;SDS011;12020;51.384;6.908;2022-09-09T12:15:55;1.63;;;0.70;;
23684;SDS011;12020;51.384;6.908;2022-09-09T12:18:24;1.67;;;0.73;;
23684;SDS011;12020;51.384;6.908;2022-09-09T12:26:38;2.73;;;0.80;;
23684;SDS011;12020;51.384;6.908;2022-09-09T12:31:49;1.43;;;1.00;;
23684;SDS011;12020;51.384;6.908;2022-09-09T12:37:06;4.83;;;0.90;;
23684;SDS011;12020;51.384;6.908;2022-09-09T12:40:23;5.40;;;1.17;;
23684;SDS011;12020;51.384;6.908;2022-09-09T12:42:51;3.10;;;1.00;;
23684;SDS011;12020;51.384;6.908;2022-09-09T12:45:27;1.77;;;0.80;;
23684;SDS011;12020;51.384;6.908;2022-09-09T12:48:07;3.10;;;0.90;;
23684;SDS011;12020;51.384;6.908;2022-09-09T12:53:46;2.67;;;1.10;;
23684;SDS011;12020;51.384;6.908;2022-09-09T12:59:21;2.53;;;0.90;;
23684;SDS011;12020;51.384;6.908;2022-09-09T13:01:56;3.70;;;1.10;;
23684;SDS011;12020;51.384;6.908;2022-09-09T13:04:24;3.73;;;1.00;;
23684;SDS011;12020;51.384;6.908;2022-09-09T13:06:50;1.33;;;0.80;;
23684;SDS011;12020;51.384;6.908;2022-09-09T13:09:17;3.90;;;0.73;;
23684;SDS011;12020;51.384;6.908;2022-09-09T13:11:46;3.10;;;0.80;;
23684;SDS011;12020;51.384;6.908;2022-09-09T13:14:31;2.40;;;0.80;;
23684;SDS011;12020;51.384;6.908;2022-09-09T13:17:02;2.33;;;0.80;;
23684;SDS011;12020;51.384;6.908;2022-09-09T13:19:35;2.37;;;1.00;;
23684;SDS011;12020;51.384;6.908;2022-09-09T13:22:13;1.90;;;1.00;;
23684;SDS011;12020;51.384;6.908;2022-09-09T13:24:42;2.40;;;1.00;;
23684;SDS011;12020;51.384;6.908;2022-09-09T13:29:55;1.97;;;0.80;;
23684;SDS011;12020;51.384;6.908;2022-09-09T13:32:23;1.73;;;0.70;;
23684;SDS011;12020;51.384;6.908;2022-09-09T13:34:59;3.27;;;0.80;;
23684;SDS011;12020;51.384;6.908;2022-09-09T13:37:36;2.07;;;0.77;;
23684;SDS011;12020;51.384;6.908;2022-09-09T13:42:59;2.37;;;0.80;;
23684;SDS011;12020;51.384;6.908;2022-09-09T13:45:26;3.70;;;1.27;;
23684;SDS011;12020;51.384;6.908;2022-09-09T13:47:56;2.53;;;0.80;;
23684;SDS011;12020;51.384;6.908;2022-09-09T13:50:26;2.53;;;1.10;;
23684;SDS011;12020;51.384;6.908;2022-09-09T13:52:54;3.40;;;1.03;;
23684;SDS011;12020;51.384;6.908;2022-09-09T13:55:28;2.50;;;0.90;;
23684;SDS011;12020;51.384;6.908;2022-09-09T13:58:17;1.17;;;0.70;;
23684;SDS011;12020;51.384;6.908;2022-09-09T14:00:45;2.07;;;0.90;;
23684;SDS011;12020;51.384;6.908;2022-09-09T14:03:12;1.20;;;0.70;;
23684;SDS011;12020;51.384;6.908;2022-09-09T14:05:40;2.50;;;0.80;;
23684;SDS011;12020;51.384;6.908;2022-09-09T14:08:09;2.23;;;0.90;;
23684;SDS011;12020;51.384;6.908;2022-09-09T14:10:44;2.90;;;1.00;;
23684;SDS011;12020;51.384;6.908;2022-09-09T14:13:11;3.23;;;0.80;;
23684;SDS011;12020;51.384;6.908;2022-09-09T14:15:38;4.13;;;1.57;;
23684;SDS011;12020;51.384;6.908;2022-09-09T14:18:04;2.97;;;1.00;;
23684;SDS011;12020;51.384;6.908;2022-09-09T14:20:31;2.43;;;1.00;;
23684;SDS011;12020;51.384;6.908;2022-09-09T14:22:57;3.07;;;0.90;;
23684;SDS011;12020;51.384;6.908;2022-09-09T14:25:23;2.37;;;1.03;;
23684;SDS011;12020;51.384;6.908;2022-09-09T14:27:50;2.40;;;0.90;;
23684;SDS011;12020;51.384;6.908;2022-09-09T14:30:17;2.17;;;0.80;;
23684;SDS011;12020;51.384;6.908;2022-09-09T14:32:42;4.13;;;1.20;;
23684;SDS011;12020;51.384;6.908;2022-09-09T14:35:13;2.63;;;1.27;;
23684;SDS011;12020;51.384;6.908;2022-09-09T14:37:39;2.07;;;1.00;;
23684;SDS011;12020;51.384;6.908;2022-09-09T14:40:05;2.20;;;0.83;;
23684;SDS011;12020;51.384;6.908;2022-09-09T14:42:31;5.37;;;1.07;;
23684;SDS011;12020;51.384;6.908;2022-09-09T14:44:56;3.90;;;1.00;;
23684;SDS011;12020;51.384;6.908;2022-09-09T14:47:24;4.90;;;1.20;;
23684;SDS011;12020;51.384;6.908;2022-09-09T14:49:52;4.60;;;1.00;;
23684;SDS011;12020;51.384;6.908;2022-09-09T14:52:18;0.50;;;0.20;;
23684;SDS011;12020;51.384;6.908;2022-09-09T14:54:44;1.70;;;0.37;;
23684;SDS011;12020;51.384;6.908;2022-09-09T14:57:15;0.50;;;0.20;;
23684;SDS011;12020;51.384;6.908;2022-09-09T14:59:40;0.73;;;0.30;;
23684;SDS011;12020;51.384;6.908;2022-09-09T15:02:15;0.50;;;0.20;;
23684;SDS011;12020;51.384;6.908;2022-09-09T15:04:45;0.83;;;0.40;;
23684;SDS011;12020;51.384;6.908;2022-09-09T15:07:12;0.70;;;0.50;;
23684;SDS011;12020;51.384;6.908;2022-09-09T15:12:08;2.87;;;0.50;;
23684;SDS011;12020;51.384;6.908;2022-09-09T15:14:34;1.07;;;0.50;;
23684;SDS011;12020;51.384;6.908;2022-09-09T15:17:05;0.90;;;0.40;;
23684;SDS011;12020;51.384;6.908;2022-09-09T15:22:44;2.77;;;0.60;;
23684;SDS011;12020;51.384;6.908;2022-09-09T15:25:11;1.27;;;0.57;;
23684;SDS011;12020;51.384;6.908;2022-09-09T15:27:55;1.57;;;0.40;;
23684;SDS011;12020;51.384;6.908;2022-09-09T15:39:09;0.50;;;0.30;;
23684;SDS011;12020;51.384;6.908;2022-09-09T15:44:45;0.70;;;0.60;;
23684;SDS011;12020;51.384;6.908;2022-09-09T15:52:34;1.03;;;0.37;;
23684;SDS011;12020;51.384;6.908;2022-09-09T15:55:03;0.80;;;0.40;;
23684;SDS011;12020;51.384;6.908;2022-09-09T15:57:29;1.17;;;0.40;;
23684;SDS011;12020;51.384;6.908;2022-09-09T15:59:56;3.27;;;0.53;;
23684;SDS011;12020;51.384;6.908;2022-09-09T16:02:22;1.60;;;0.40;;
23684;SDS011;12020;51.384;6.908;2022-09-09T16:04:47;1.30;;;0.37;;
23684;SDS011;12020;51.384;6.908;2022-09-09T16:07:13;1.77;;;0.57;;
23684;SDS011;12020;51.384;6.908;2022-09-09T16:09:41;0.90;;;0.50;;
23684;SDS011;12020;51.384;6.908;2022-09-09T16:12:20;3.53;;;1.00;;
23684;SDS011;12020;51.384;6.908;2022-09-09T16:14:47;2.80;;;0.87;;
23684;SDS011;12020;51.384;6.908;2022-09-09T16:17:38;3.80;;;0.70;;
23684;SDS011;12020;51.384;6.908;2022-09-09T16:20:03;1.33;;;0.50;;
23684;SDS011;12020;51.384;6.908;2022-09-09T16:22:32;1.70;;;0.60;;
23684;SDS011;12020;51.384;6.908;2022-09-09T16:24:57;1.87;;;0.67;;
23684;SDS011;12020;51.384;6.908;2022-09-09T16:27:23;2.27;;;0.53;;
23684;SDS011;12020;51.384;6.908;2022-09-09T16:29:49;2.97;;;0.70;;
23684;SDS011;12020;51.384;6.908;2022-09-09T16:32:14;1.53;;;0.50;;
23684;SDS011;12020;51.384;6.908;2022-09-09T16:34:40;2.00;;;0.90;;
23684;SDS011;12020;51.384;6.908;2022-09-09T16:37:09;3.80;;;1.00;;
23684;SDS011;12020;51.384;6.908;2022-09-09T16:39:37;1.20;;;0.70;;
23684;SDS011;12020;51.384;6.908;2022-09-09T16:42:09;3.67;;;1.00;;
23684;SDS011;12020;51.384;6.908;2022-09-09T16:44:35;2.00;;;1.13;;
23684;SDS011;12020;51.384;6.908;2022-09-09T16:47:04;2.27;;;1.13;;
23684;SDS011;12020;51.384;6.908;2022-09-09T16:49:38;1.77;;;1.07;;
23684;SDS011;12020;51.384;6.908;2022-09-09T16:52:08;2.30;;;1.17;;
23684;SDS011;12020;51.384;6.908;2022-09-09T16:54:33;1.43;;;1.13;;
23684;SDS011;12020;51.384;6.908;2022-09-09T16:57:02;3.87;;;1.20;;
23684;SDS011;12020;51.384;6.908;2022-09-09T16:59:29;2.93;;;1.20;;
23684;SDS011;12020;51.384;6.908;2022-09-09T17:01:57;3.23;;;1.63;;
23684;SDS011;12020;51.384;6.908;2022-09-09T17:04:26;4.57;;;1.20;;
23684;SDS011;12020;51.384;6.908;2022-09-09T17:06:54;3.40;;;1.37;;
23684;SDS011;12020;51.384;6.908;2022-09-09T17:11:55;2.67;;;1.50;;
23684;SDS011;12020;51.384;6.908;2022-09-09T17:14:22;3.97;;;1.20;;
23684;SDS011;12020;51.384;6.908;2022-09-09T17:16:48;2.60;;;1.20;;
23684;SDS011;12020;51.384;6.908;2022-09-09T17:19:14;6.23;;;1.30;;
23684;SDS011;12020;51.384;6.908;2022-09-09T17:21:41;2.00;;;1.53;;
23684;SDS011;12020;51.384;6.908;2022-09-09T17:24:13;2.93;;;1.20;;
23684;SDS011;12020;51.384;6.908;2022-09-09T17:26:49;2.93;;;1.27;;
23684;SDS011;12020;51.384;6.908;2022-09-09T17:29:15;3.47;;;1.40;;
23684;SDS011;12020;51.384;6.908;2022-09-09T17:31:41;6.27;;;2.10;;
23684;SDS011;12020;51.384;6.908;2022-09-09T17:34:08;3.20;;;1.63;;
23684;SDS011;12020;51.384;6.908;2022-09-09T17:36:34;2.20;;;1.57;;
23684;SDS011;12020;51.384;6.908;2022-09-09T17:39:02;4.70;;;1.70;;
23684;SDS011;12020;51.384;6.908;2022-09-09T17:41:31;2.27;;;1.80;;
23684;SDS011;12020;51.384;6.908;2022-09-09T17:44:00;3.10;;;1.97;;
23684;SDS011;12020;51.384;6.908;2022-09-09T17:46:35;5.63;;;2.03;;
23684;SDS011;12020;51.384;6.908;2022-09-09T17:49:06;4.97;;;2.37;;
23684;SDS011;12020;51.384;6.908;2022-09-09T17:51:33;4.60;;;1.87;;
23684;SDS011;12020;51.384;6.908;2022-09-09T17:54:01;4.40;;;2.10;;
23684;SDS011;12020;51.384;6.908;2022-09-09T17:56:32;3.77;;;2.03;;
23684;SDS011;12020;51.384;6.908;2022-09-09T17:58:59;3.67;;;1.93;;
23684;SDS011;12020;51.384;6.908;2022-09-09T18:01:27;3.50;;;1.50;;
23684;SDS011;12020;51.384;6.908;2022-09-09T18:03:55;2.80;;;1.80;;
23684;SDS011;12020;51.384;6.908;2022-09-09T18:06:22;4.30;;;1.90;;
23684;SDS011;12020;51.384;6.908;2022-09-09T18:08:54;2.87;;;1.50;;
23684;SDS011;12020;51.384;6.908;2022-09-09T18:11:22;1.93;;;1.43;;
23684;SDS011;12020;51.384;6.908;2022-09-09T18:13:50;3.93;;;1.90;;
23684;SDS011;12020;51.384;6.908;2022-09-09T18:16:18;5.10;;;2.27;;
23684;SDS011;12020;51.384;6.908;2022-09-09T18:18:44;4.50;;;1.40;;
23684;SDS011;12020;51.384;6.908;2022-09-09T18:21:11;3.23;;;1.97;;
23684;SDS011;12020;51.384;6.908;2022-09-09T18:23:41;1.43;;;1.23;;
23684;SDS011;12020;51.384;6.908;2022-09-09T18:26:12;3.30;;;1.50;;
23684;SDS011;12020;51.384;6.908;2022-09-09T18:28:39;4.20;;;1.60;;
23684;SDS011;12020;51.384;6.908;2022-09-09T18:31:11;3.07;;;1.00;;
23684;SDS011;12020;51.384;6.908;2022-09-09T18:33:41;2.10;;;1.00;;
23684;SDS011;12020;51.384;6.908;2022-09-09T18:36:12;3.33;;;1.20;;
23684;SDS011;12020;51.384;6.908;2022-09-09T18:38:42;1.53;;;1.00;;
23684;SDS011;12020;51.384;6.908;2022-09-09T18:41:19;3.30;;;1.33;;